Terminal Aerodrome Forecast
Issued by NWS

Current Version | Previous Version | Text Only | Print | Product List | Glossary On
Versions: 1 2 3 4 5 6 7 8 9 10 11
057
FTUS44 KBMX 272340
TAFEET
TAF
KEET 272340Z 2800/2824 30004KT P6SM SCT050
     FM280100 00000KT P6SM SKC
     FM280900 15005KT 3SM BR BKN015
     FM281700 17009G18KT P6SM SCT050=

USA.gov is the U.S. government's official web portal to all federal, state and local government web resources and services.